createdAt,value
2019-02-24T11:56:19.675Z,7.43
2019-02-24T11:58:51.063Z,7.47
2019-02-24T12:01:22.280Z,8.07
2019-02-24T12:04:05.850Z,7.77
2019-02-24T12:06:37.235Z,7.13
2019-02-24T12:09:08.488Z,6.40
2019-02-24T12:11:39.874Z,8.10
2019-02-24T12:14:10.907Z,7.07
2019-02-24T12:16:42.313Z,7.73
2019-02-24T12:19:13.511Z,7.40
2019-02-24T12:21:44.803Z,7.27
2019-02-24T12:24:16.074Z,7.20
2019-02-24T12:26:47.371Z,7.77
2019-02-24T12:29:18.524Z,7.27
2019-02-24T12:31:56.421Z,7.63
2019-02-24T12:34:22.663Z,9.03
2019-02-24T12:36:53.952Z,7.97
2019-02-24T12:39:25.205Z,8.33
2019-02-24T12:41:56.470Z,8.73
2019-02-24T12:44:27.625Z,7.80
2019-02-24T12:47:00.471Z,8.83
2019-02-24T12:49:31.819Z,8.27
2019-02-24T12:52:03.263Z,9.07
2019-02-24T12:54:34.335Z,7.03
2019-02-24T12:57:05.653Z,7.37
2019-02-24T12:59:36.820Z,9.27
2019-02-24T13:02:08.356Z,8.07
2019-02-24T13:04:39.659Z,8.93
2019-02-24T13:07:11.361Z,8.83
2019-02-24T13:09:42.473Z,8.40
2019-02-24T13:12:13.648Z,9.30
2019-02-24T13:14:44.761Z,8.83
2019-02-24T13:17:16.222Z,8.97
2019-02-24T13:19:47.473Z,10.20
2019-02-24T13:22:19.041Z,9.70
2019-02-24T13:24:51.023Z,9.40
2019-02-24T13:27:22.365Z,9.77
2019-02-24T13:29:53.487Z,10.20
2019-02-24T13:32:24.875Z,10.03
2019-02-24T13:34:57.048Z,9.30
2019-02-24T13:37:28.467Z,9.43
2019-02-24T13:40:00.964Z,9.47
2019-02-24T13:42:32.539Z,9.10
2019-02-24T13:45:03.744Z,8.30
2019-02-24T13:47:35.030Z,9.57
2019-02-24T13:50:06.423Z,9.17
2019-02-24T13:52:38.953Z,8.30
2019-02-24T13:55:12.015Z,9.30
2019-02-24T13:57:43.461Z,7.93
2019-02-24T14:00:16.187Z,8.87
2019-02-24T14:02:47.901Z,9.23
2019-02-24T14:05:19.418Z,9.43
2019-02-24T14:07:51.821Z,9.30
2019-02-24T14:10:22.903Z,9.73
2019-02-24T14:12:54.316Z,8.80
2019-02-24T14:15:25.463Z,8.10
2019-02-24T14:17:57.943Z,8.17
2019-02-24T14:20:29.009Z,8.47
2019-02-24T14:23:00.438Z,8.93
2019-02-24T14:25:31.619Z,8.10
2019-02-24T14:28:02.932Z,8.13
2019-02-24T14:30:34.155Z,7.73
2019-02-24T14:33:05.629Z,8.20
2019-02-24T14:35:36.686Z,7.30
2019-02-24T14:38:08.119Z,8.10
2019-02-24T14:40:39.232Z,7.47
2019-02-24T14:43:10.503Z,7.40
2019-02-24T14:45:49.440Z,7.60
2019-02-24T14:48:14.639Z,8.07
2019-02-24T14:50:45.709Z,7.73
2019-02-24T14:53:17.036Z,7.90
2019-02-24T14:55:48.176Z,8.03
2019-02-24T14:58:19.551Z,7.50
2019-02-24T15:00:50.695Z,7.60
2019-02-24T15:03:22.035Z,7.70
2019-02-24T15:05:53.103Z,8.77
2019-02-24T15:08:24.741Z,7.60
2019-02-24T15:10:55.884Z,7.10
2019-02-24T15:13:27.217Z,7.40
2019-02-24T15:15:58.275Z,8.33
2019-02-24T15:18:29.713Z,7.73
2019-02-24T15:21:00.894Z,6.73
2019-02-24T15:23:32.215Z,7.60
2019-02-24T15:26:03.295Z,7.00
2019-02-24T15:28:34.593Z,8.27
2019-02-24T15:34:18.568Z,7.80
2019-02-24T15:36:49.705Z,6.90
2019-02-24T15:39:21.053Z,7.47
2019-02-24T15:41:52.129Z,7.00
2019-02-24T15:44:23.507Z,7.67
2019-02-24T15:46:54.643Z,7.60
2019-02-24T15:49:25.946Z,6.93
2019-02-24T15:51:57.035Z,6.80
2019-02-24T15:54:29.309Z,6.90
2019-02-24T15:57:00.621Z,6.40
2019-02-24T15:59:31.956Z,6.30
2019-02-24T16:02:03.146Z,7.33
2019-02-24T16:04:34.551Z,6.87
2019-02-24T16:07:06.609Z,6.37
2019-02-24T16:09:37.973Z,9.03
2019-02-24T16:12:10.121Z,6.43
2019-02-24T16:14:41.522Z,6.37
2019-02-24T16:17:12.600Z,7.13
2019-02-24T16:19:44.097Z,7.97
2019-02-24T16:22:15.390Z,8.70
2019-02-24T16:24:46.735Z,8.87
2019-02-24T16:27:17.793Z,8.97
2019-02-24T16:29:49.285Z,8.20
2019-02-24T16:32:20.403Z,9.07
2019-02-24T16:34:52.675Z,8.27
2019-02-24T16:37:23.788Z,8.27
2019-02-24T16:39:55.008Z,8.53
2019-02-24T16:42:26.100Z,9.30
2019-02-24T16:44:57.551Z,8.47
2019-02-24T16:47:28.672Z,7.90
2019-02-24T16:50:00.309Z,7.87
2019-02-24T16:52:31.461Z,7.97
2019-02-24T16:55:02.881Z,8.43
2019-02-24T16:57:33.935Z,7.87
2019-02-24T17:00:07.754Z,8.27
2019-02-24T17:02:39.078Z,7.63
2019-02-24T17:05:10.421Z,7.47
2019-02-24T17:07:41.640Z,8.20
2019-02-24T17:10:14.978Z,8.00
2019-02-24T17:12:46.177Z,7.73
2019-02-24T17:15:17.569Z,9.00
2019-02-24T17:17:48.987Z,7.80
2019-02-24T17:20:20.464Z,7.57
2019-02-24T17:22:51.677Z,7.23
2019-02-24T17:25:23.075Z,6.87
2019-02-24T17:27:54.538Z,6.90
2019-02-24T17:30:26.825Z,6.97
2019-02-24T17:32:57.884Z,7.73
2019-02-24T17:35:29.605Z,8.10
2019-02-24T17:38:00.752Z,8.30
2019-02-24T17:40:33.497Z,7.60
2019-02-24T17:43:04.649Z,7.33
2019-02-24T17:45:36.060Z,7.20
2019-02-24T17:48:07.199Z,7.20
2019-02-24T17:50:38.459Z,7.67
2019-02-24T17:53:09.586Z,7.60
2019-02-24T17:55:41.491Z,7.10
2019-02-24T17:58:12.891Z,7.20
2019-02-24T18:00:50.665Z,7.23
2019-02-24T18:03:21.799Z,7.57
2019-02-24T18:05:53.259Z,8.03
2019-02-24T18:08:28.270Z,7.33
2019-02-24T18:10:57.887Z,7.17
2019-02-24T18:13:29.003Z,7.70
2019-02-24T18:16:00.614Z,6.87
2019-02-24T18:18:31.779Z,7.00
2019-02-24T18:21:03.099Z,6.30
2019-02-24T18:23:34.279Z,7.43
2019-02-24T18:26:05.647Z,7.57
2019-02-24T18:28:36.839Z,7.00
2019-02-24T18:31:08.243Z,7.47
2019-02-24T18:33:47.896Z,6.70
2019-02-24T18:36:12.647Z,7.40
2019-02-24T18:38:43.736Z,6.80
2019-02-24T18:41:15.038Z,7.37
2019-02-24T18:43:46.373Z,7.50
2019-02-24T18:46:17.624Z,6.57
2019-02-24T18:48:48.759Z,7.30
2019-02-24T18:51:21.065Z,7.37
2019-02-24T18:53:52.265Z,7.53
2019-02-24T18:56:23.532Z,7.43
2019-02-24T18:58:54.622Z,7.53
2019-02-24T19:01:26.122Z,7.60
2019-02-24T19:03:58.128Z,6.87
2019-02-24T19:06:38.758Z,7.57
2019-02-24T19:09:02.453Z,6.20
2019-02-24T19:11:35.413Z,8.70
2019-02-24T19:14:07.561Z,10.30
2019-02-24T19:16:38.775Z,10.20
2019-02-24T19:19:09.875Z,10.70
2019-02-24T19:21:41.054Z,9.97
2019-02-24T19:24:12.105Z,8.93
2019-02-24T19:26:43.307Z,8.73
2019-02-24T19:29:14.389Z,8.97
2019-02-24T19:31:45.689Z,11.57
2019-02-24T19:34:16.806Z,8.67
2019-02-24T19:36:48.615Z,7.73
2019-02-24T19:39:20.177Z,8.23
2019-02-24T19:41:51.609Z,6.93
2019-02-24T19:44:22.700Z,7.80
2019-02-24T19:46:54.045Z,7.90
2019-02-24T19:49:25.248Z,8.30
2019-02-24T19:51:56.637Z,8.00
2019-02-24T19:54:27.767Z,7.60
2019-02-24T19:56:59.496Z,7.93
2019-02-24T19:59:30.544Z,8.20
2019-02-24T20:02:01.693Z,8.07
2019-02-24T20:04:32.813Z,7.73
2019-02-24T20:07:04.299Z,6.83
2019-02-24T20:09:35.370Z,7.40
2019-02-24T20:12:06.619Z,7.30
2019-02-24T20:14:37.745Z,7.20
2019-02-24T20:17:09.085Z,7.80
2019-02-24T20:19:40.159Z,6.13
2019-02-24T20:22:11.481Z,6.60
2019-02-24T20:24:42.541Z,6.10
2019-02-24T20:27:14.787Z,8.13
2019-02-24T20:29:46.117Z,7.70
2019-02-24T20:32:17.390Z,7.53
2019-02-24T20:34:48.534Z,7.20
2019-02-24T20:37:20.089Z,6.60
2019-02-24T20:39:51.161Z,6.87
2019-02-24T20:42:24.630Z,6.90
2019-02-24T20:44:55.757Z,6.23
2019-02-24T20:47:27.130Z,6.87
2019-02-24T20:49:58.309Z,6.70
2019-02-24T20:52:29.800Z,6.00
2019-02-24T20:55:00.959Z,6.30
2019-02-24T20:57:32.261Z,6.03
2019-02-24T21:00:03.640Z,6.23
2019-02-24T21:02:36.443Z,6.43
2019-02-24T21:05:07.547Z,6.60
2019-02-24T21:07:38.785Z,5.90
2019-02-24T21:10:10.337Z,6.20
2019-02-24T21:12:41.851Z,6.27
2019-02-24T21:15:13.643Z,6.10
2019-02-24T21:17:45.890Z,6.07
2019-02-24T21:20:19.070Z,5.67
2019-02-24T21:22:50.789Z,5.90
2019-02-24T21:25:22.033Z,5.60
2019-02-24T21:27:53.873Z,6.13
2019-02-24T21:30:25.119Z,5.80
2019-02-24T21:32:56.429Z,5.80
2019-02-24T21:35:27.532Z,4.93
2019-02-24T21:37:59.057Z,5.40
2019-02-24T21:40:32.715Z,6.00
2019-02-24T21:43:03.873Z,5.50
2019-02-24T21:45:38.675Z,4.57
2019-02-24T21:48:10.659Z,4.17
2019-02-24T21:50:42.265Z,5.20
2019-02-24T21:53:13.568Z,4.60
2019-02-24T21:55:44.799Z,5.10
2019-02-24T21:58:16.065Z,4.77
2019-02-24T22:00:47.325Z,4.30
2019-02-24T22:03:18.657Z,4.80
2019-02-24T22:05:49.822Z,4.43
2019-02-24T22:08:21.360Z,4.93
2019-02-24T22:10:52.741Z,5.00
2019-02-24T22:13:25.185Z,4.53
2019-02-24T22:15:56.369Z,4.90
2019-02-24T22:18:27.885Z,4.70
2019-02-24T22:20:59.221Z,4.80
2019-02-24T22:23:30.572Z,5.07
2019-02-24T22:26:01.714Z,4.20
2019-02-24T22:28:33.006Z,4.53
2019-02-24T22:31:04.169Z,4.60
2019-02-24T22:33:35.581Z,4.40
2019-02-24T22:36:06.717Z,4.70
2019-02-24T22:38:38.169Z,4.97
2019-02-24T22:41:09.363Z,4.47
2019-02-24T22:43:40.873Z,4.90
2019-02-24T22:46:11.979Z,5.17
2019-02-24T22:48:43.353Z,4.47
2019-02-24T22:51:14.446Z,5.20
2019-02-24T22:53:45.951Z,4.97
2019-02-24T22:56:17.101Z,4.90
2019-02-24T22:58:48.745Z,4.50
2019-02-24T23:01:36.256Z,4.70
2019-02-24T23:04:12.467Z,4.60
2019-02-24T23:06:43.714Z,4.77
2019-02-24T23:09:20.158Z,4.67
2019-02-24T23:11:51.728Z,4.73
2019-02-24T23:14:24.399Z,5.43
2019-02-24T23:17:07.050Z,4.53
2019-02-24T23:19:38.555Z,4.50
2019-02-24T23:22:09.663Z,4.60
2019-02-24T23:24:41.435Z,4.73
2019-02-24T23:27:12.625Z,5.10
2019-02-24T23:29:44.164Z,5.43
2019-02-24T23:32:16.641Z,4.70
2019-02-24T23:34:48.320Z,5.53
2019-02-24T23:37:19.364Z,4.93
2019-02-24T23:39:50.811Z,5.00
2019-02-24T23:42:21.886Z,4.97
2019-02-24T23:44:53.209Z,4.67
2019-02-24T23:47:43.377Z,4.60
2019-02-24T23:50:14.731Z,5.90
2019-02-24T23:52:46.933Z,4.90
2019-02-24T23:55:18.341Z,5.43
2019-02-24T23:57:49.437Z,5.27
